Ribarroja, Spain
Current Conditions -  °F | °C
As of 11:30 PM on Friday 28 Nov 2014 (Local Time) from LEVC Reporting Station
Light Rain Light Rain  
Wind Chill: 61°   Ceiling: Unl
Heat Index: 61°   Visibility: 6mi
Dew Point: 59°   Wind: 8mph
Humidity: 94%   Direction: 120°ESE
Pressure: 29.32"   Gusts: NA
Location:  39.55°N, 0.57°W
Report Text: LEVC 282230Z 12007KT 9999 -RA FEW010 SCT015 16/15 Q0993 NOSIG
Loading
Personal Weather Stations






























Interactive Weather Map New forecast layout! Learn more

10-Day Weather Forecast

Advertisements
Track Severe Weather on mobile